Time;durP1;ratioP1;P1;durP2;ratioP2;P2;SDS_P1;SDS_P2;PMS_P1;PMS_P2;Temp;Humidity;BMP_temperature;BMP_pressure;BME280_temperature;BME280_humidity;BME280_pressure;Samples;Min_cycle;Max_cycle;Signal;HPM_P1;HPM_P2
2021/08/05 00:02:24;;;;;;;9.35;7.00;;;14.20;98.10;;;;;;5058990;28;20040;-68
2021/08/05 00:04:50;;;;;;;9.65;6.15;;;14.20;98.10;;;;;;5053741;28;20437;-67
2021/08/05 00:07:16;;;;;;;7.80;5.80;;;14.20;98.20;;;;;;5052153;28;20032;-67
2021/08/05 00:09:43;;;;;;;10.63;5.63;;;14.20;98.10;;;;;;5053863;28;20024;-67
2021/08/05 00:12:11;;;;;;;10.30;6.00;;;14.10;98.10;;;;;;5058392;28;20112;-67
2021/08/05 00:14:38;;;;;;;11.23;5.88;;;14.20;98.10;;;;;;5053527;28;20078;-67
2021/08/05 00:17:04;;;;;;;12.63;6.53;;;14.10;98.10;;;;;;5065332;28;20466;-67
2021/08/05 00:19:29;;;;;;;7.82;5.60;;;14.10;98.10;;;;;;5062079;28;20131;-68
2021/08/05 00:21:55;;;;;;;7.38;5.20;;;14.10;98.20;;;;;;5061873;28;20060;-68
2021/08/05 00:24:20;;;;;;;12.23;6.10;;;14.10;98.20;;;;;;5049069;28;20110;-67
2021/08/05 00:26:46;;;;;;;9.00;5.63;;;14.10;98.20;;;;;;5064642;28;20043;-68
2021/08/05 00:29:12;;;;;;;7.15;5.30;;;14.10;98.20;;;;;;5066430;28;20032;-68
2021/08/05 00:31:37;;;;;;;9.55;5.60;;;14.10;98.20;;;;;;5062345;28;20576;-67
2021/08/05 00:34:03;;;;;;;7.60;5.50;;;14.10;98.10;;;;;;5062838;28;20365;-67
2021/08/05 00:36:28;;;;;;;7.93;5.43;;;14.10;98.10;;;;;;5065740;28;20047;-68
2021/08/05 00:38:54;;;;;;;9.68;5.45;;;14.10;98.10;;;;;;5060215;28;20079;-68
2021/08/05 00:41:19;;;;;;;6.55;4.85;;;14.10;98.10;;;;;;5060409;28;20025;-67
2021/08/05 00:43:45;;;;;;;12.50;5.30;;;14.10;98.10;;;;;;5066016;28;20036;-68
2021/08/05 00:46:10;;;;;;;7.25;4.68;;;14.10;98.20;;;;;;5064005;28;20028;-67
2021/08/05 00:48:36;;;;;;;13.45;4.88;;;14.10;98.20;;;;;;5064864;28;20255;-68
2021/08/05 00:51:02;;;;;;;6.85;4.57;;;14.10;98.10;;;;;;5059279;28;20056;-68
2021/08/05 00:53:27;;;;;;;7.28;4.47;;;14.10;98.00;;;;;;5064791;28;20024;-69
2021/08/05 00:55:54;;;;;;;9.23;4.63;;;14.10;98.10;;;;;;5062473;28;20163;-67
2021/08/05 00:58:19;;;;;;;9.88;4.70;;;14.10;98.10;;;;;;5061429;28;20021;-67
2021/08/05 01:00:50;;;;;;;6.03;4.60;;;14.10;98.00;;;;;;5060032;28;20108;-68
2021/08/05 01:03:43;;;;;;;6.32;4.53;;;14.10;98.00;;;;;;5062635;28;20335;-67
2021/08/05 01:06:37;;;;;;;6.47;4.40;;;14.10;98.10;;;;;;5061250;28;20056;-67
2021/08/05 01:09:17;;;;;;;9.23;4.63;;;14.10;98.00;;;;;;5058798;28;20047;-68
2021/08/05 01:12:10;;;;;;;9.32;4.28;;;14.10;98.00;;;;;;5064255;28;20132;-68
2021/08/05 01:14:39;;;;;;;8.35;4.68;;;14.10;98.00;;;;;;5063280;28;20032;-67
2021/08/05 01:17:08;;;;;;;6.03;4.07;;;14.10;98.00;;;;;;5063466;28;20028;-68
2021/08/05 01:19:42;;;;;;;7.38;4.40;;;14.10;98.00;;;;;;5063292;28;20613;-67
2021/08/05 01:22:24;;;;;;;9.45;4.72;;;14.10;98.00;;;;;;5056854;28;20116;-66
2021/08/05 01:25:04;;;;;;;8.05;4.90;;;14.10;98.00;;;;;;5060047;28;20024;-67
2021/08/05 01:27:31;;;;;;;7.50;4.30;;;14.00;97.90;;;;;;5059993;28;20050;-68
2021/08/05 01:29:57;;;;;;;6.47;4.80;;;14.10;97.90;;;;;;5065439;28;20028;-67
2021/08/05 01:32:23;;;;;;;8.35;4.05;;;14.00;97.90;;;;;;5062531;28;20111;-68
2021/08/05 01:34:49;;;;;;;7.13;4.60;;;14.10;97.90;;;;;;5064594;28;20055;-68
2021/08/05 01:37:18;;;;;;;9.57;4.45;;;14.10;97.90;;;;;;5051708;28;20456;-68
2021/08/05 01:39:44;;;;;;;8.77;4.20;;;14.00;97.90;;;;;;5062086;28;20039;-67
2021/08/05 01:42:11;;;;;;;9.27;4.32;;;14.00;97.80;;;;;;5044020;28;20413;-68
2021/08/05 01:44:41;;;;;;;9.02;4.10;;;14.00;97.80;;;;;;5063044;28;20151;-68
2021/08/05 01:47:07;;;;;;;9.13;4.00;;;14.00;97.90;;;;;;5063336;28;20772;-68
2021/08/05 01:49:34;;;;;;;5.93;4.07;;;14.00;97.90;;;;;;5064119;28;20543;-67
2021/08/05 01:52:01;;;;;;;9.25;4.25;;;14.00;97.90;;;;;;5063054;28;20036;-68
2021/08/05 01:54:26;;;;;;;6.97;3.92;;;14.00;97.90;;;;;;5064139;28;20027;-68
2021/08/05 01:56:52;;;;;;;9.23;4.32;;;14.00;97.80;;;;;;5058773;28;20029;-67
2021/08/05 01:59:18;;;;;;;5.72;4.03;;;14.00;97.80;;;;;;5054523;28;20059;-68
2021/08/05 02:01:43;;;;;;;9.00;4.15;;;14.00;97.80;;;;;;5060459;28;20101;-67
2021/08/05 02:04:34;;;;;;;7.57;3.88;;;14.00;97.80;;;;;;5064786;28;20132;-68
2021/08/05 02:07:12;;;;;;;6.20;4.30;;;14.00;97.90;;;;;;5057750;28;20059;-67
2021/08/05 02:09:48;;;;;;;8.50;4.45;;;14.00;97.90;;;;;;5065212;28;20044;-67
2021/08/05 02:12:14;;;;;;;7.55;4.30;;;14.00;97.80;;;;;;5055912;28;20028;-68
2021/08/05 02:14:40;;;;;;;7.18;4.32;;;14.00;97.90;;;;;;5060641;28;20016;-68
2021/08/05 02:17:08;;;;;;;9.30;4.40;;;14.00;97.90;;;;;;5056045;28;20408;-67
2021/08/05 02:19:35;;;;;;;6.15;4.35;;;13.90;97.90;;;;;;5062255;28;20047;-68
2021/08/05 02:22:01;;;;;;;6.63;4.32;;;13.90;97.90;;;;;;5066186;28;20035;-67
2021/08/05 02:24:30;;;;;;;6.38;3.88;;;13.90;97.90;;;;;;5061941;28;20111;-68
2021/08/05 02:26:58;;;;;;;8.38;4.13;;;13.90;97.90;;;;;;5059998;28;20406;-68
2021/08/05 02:29:25;;;;;;;9.40;4.35;;;13.90;97.90;;;;;;5066356;28;20024;-68
2021/08/05 02:31:50;;;;;;;10.13;5.03;;;13.90;97.90;;;;;;5060564;28;20028;-67
2021/08/05 02:34:18;;;;;;;6.30;4.00;;;13.90;97.90;;;;;;5058773;28;20020;-68
2021/08/05 02:36:43;;;;;;;11.32;4.93;;;13.90;97.90;;;;;;5052493;28;20021;-68
2021/08/05 02:39:09;;;;;;;7.88;4.43;;;13.90;97.90;;;;;;5064195;28;20399;-68
2021/08/05 02:41:36;;;;;;;8.20;4.80;;;13.90;97.90;;;;;;5068812;28;20060;-68
2021/08/05 02:44:02;;;;;;;7.50;5.15;;;14.00;97.90;;;;;;5063314;28;20085;-68
2021/08/05 02:46:29;;;;;;;7.18;4.20;;;13.90;97.90;;;;;;5064171;28;20423;-68
2021/08/05 02:48:56;;;;;;;6.72;4.80;;;14.00;98.00;;;;;;5063109;28;20323;-68
2021/08/05 02:51:22;;;;;;;7.38;4.90;;;13.90;98.00;;;;;;5066880;28;20448;-68
2021/08/05 02:53:49;;;;;;;7.68;4.43;;;14.00;98.00;;;;;;5060860;28;20063;-68
2021/08/05 02:56:16;;;;;;;7.95;4.72;;;13.90;98.00;;;;;;5060397;28;20036;-68
2021/08/05 02:58:42;;;;;;;10.40;4.75;;;14.00;98.10;;;;;;5065011;28;20432;-67
2021/08/05 03:01:08;;;;;;;8.38;4.88;;;13.90;98.00;;;;;;5062883;28;20036;-68
2021/08/05 03:03:34;;;;;;;8.48;4.75;;;13.90;98.00;;;;;;5054523;28;20527;-67
2021/08/05 03:06:00;;;;;;;7.55;4.80;;;13.90;98.00;;;;;;5058144;28;20046;-66
2021/08/05 03:08:25;;;;;;;7.55;5.13;;;13.90;98.00;;;;;;5057500;28;20539;-68
2021/08/05 03:10:51;;;;;;;7.40;4.75;;;13.90;98.00;;;;;;5061238;28;20043;-67
2021/08/05 03:13:17;;;;;;;13.38;4.82;;;14.00;98.00;;;;;;5062045;28;20025;-68
2021/08/05 03:15:42;;;;;;;8.82;5.28;;;14.00;98.00;;;;;;5066742;28;20360;-68
2021/08/05 03:18:08;;;;;;;8.50;4.50;;;14.00;98.00;;;;;;5052543;28;20128;-67
2021/08/05 03:20:34;;;;;;;7.43;4.72;;;14.00;98.00;;;;;;5058691;28;20108;-68
2021/08/05 03:23:00;;;;;;;9.52;4.80;;;14.00;97.90;;;;;;5065322;28;20028;-67
2021/08/05 03:25:27;;;;;;;7.38;4.85;;;14.00;97.90;;;;;;5069243;28;20070;-67
2021/08/05 03:27:52;;;;;;;8.10;4.88;;;14.00;97.80;;;;;;5071117;28;20074;-68
2021/08/05 03:30:18;;;;;;;9.45;5.07;;;14.00;97.80;;;;;;5069150;28;20056;-67
2021/08/05 03:32:44;;;;;;;10.20;4.50;;;14.00;97.80;;;;;;5069701;28;20276;-67
2021/08/05 03:35:09;;;;;;;7.13;4.35;;;14.00;97.70;;;;;;5069190;28;20051;-68
2021/08/05 03:37:35;;;;;;;7.07;4.40;;;14.00;97.70;;;;;;5070604;28;20056;-68
2021/08/05 03:40:01;;;;;;;8.45;4.78;;;14.00;97.60;;;;;;5061404;28;20067;-67
2021/08/05 03:42:26;;;;;;;7.60;4.82;;;14.00;97.70;;;;;;5065433;28;20094;-67
2021/08/05 03:44:52;;;;;;;7.20;4.75;;;14.00;97.70;;;;;;5068720;28;20107;-68
2021/08/05 03:47:18;;;;;;;6.93;4.40;;;14.00;97.90;;;;;;5045061;28;20037;-67
2021/08/05 03:49:43;;;;;;;6.18;4.63;;;14.00;97.80;;;;;;5070153;28;20017;-67
2021/08/05 03:52:10;;;;;;;5.35;4.28;;;14.00;97.80;;;;;;5066314;28;20044;-67
2021/08/05 03:54:37;;;;;;;9.52;4.65;;;14.00;97.60;;;;;;5069545;28;20162;-67
2021/08/05 03:57:03;;;;;;;9.68;4.78;;;14.00;97.40;;;;;;5070426;28;20023;-68
2021/08/05 03:59:29;;;;;;;10.05;4.07;;;14.10;97.20;;;;;;5069496;28;20523;-67
2021/08/05 04:01:54;;;;;;;7.78;3.83;;;14.10;97.10;;;;;;5070114;28;20025;-68
2021/08/05 04:04:20;;;;;;;7.50;4.00;;;14.10;96.90;;;;;;5068667;28;20078;-67
2021/08/05 04:06:46;;;;;;;6.68;4.00;;;14.10;96.60;;;;;;5068793;28;20031;-66
2021/08/05 04:09:11;;;;;;;6.45;4.38;;;14.10;96.70;;;;;;5070469;28;20028;-68
2021/08/05 04:11:37;;;;;;;10.00;4.07;;;14.10;96.70;;;;;;5068238;28;20028;-68
2021/08/05 04:14:02;;;;;;;7.35;4.47;;;14.10;96.80;;;;;;5070179;28;20021;-68
2021/08/05 04:16:28;;;;;;;7.15;4.22;;;14.10;96.80;;;;;;5068499;28;20337;-67
2021/08/05 04:18:54;;;;;;;7.32;4.63;;;14.10;96.90;;;;;;5071016;28;20123;-67
2021/08/05 04:21:20;;;;;;;7.80;3.97;;;14.10;97.00;;;;;;5063566;28;20108;-68
2021/08/05 04:23:45;;;;;;;5.97;3.95;;;14.10;96.80;;;;;;5066319;28;20047;-67
2021/08/05 04:26:11;;;;;;;9.93;3.78;;;14.10;96.80;;;;;;5062107;28;20036;-67
2021/08/05 04:28:36;;;;;;;6.60;4.07;;;14.10;96.90;;;;;;5068975;28;20029;-67
2021/08/05 04:31:02;;;;;;;9.60;4.68;;;14.10;96.80;;;;;;5068369;28;20032;-68
2021/08/05 04:33:27;;;;;;;9.23;4.03;;;14.10;96.80;;;;;;5069233;28;20995;-68
2021/08/05 04:35:53;;;;;;;7.40;4.05;;;14.10;96.90;;;;;;5071149;28;20051;-68
2021/08/05 04:38:19;;;;;;;8.25;4.32;;;14.10;97.00;;;;;;5063810;28;20162;-68
2021/08/05 04:40:45;;;;;;;4.82;3.40;;;14.10;97.00;;;;;;5066044;28;20033;-68
2021/08/05 04:43:10;;;;;;;7.18;4.03;;;14.10;96.90;;;;;;5060606;28;20059;-68
2021/08/05 04:45:36;;;;;;;6.47;4.18;;;14.10;96.90;;;;;;5065936;28;20438;-68
2021/08/05 04:48:04;;;;;;;9.82;4.28;;;14.10;97.00;;;;;;5066103;28;20031;-68
2021/08/05 04:50:33;;;;;;;6.93;4.03;;;14.10;96.90;;;;;;5066668;28;20463;-68
2021/08/05 04:52:59;;;;;;;9.70;4.95;;;14.20;97.00;;;;;;5066865;28;20036;-68
2021/08/05 04:55:26;;;;;;;9.02;4.13;;;14.20;97.00;;;;;;5066357;28;20025;-67
2021/08/05 04:58:01;;;;;;;7.15;4.07;;;14.20;97.00;;;;;;5062613;28;20057;-68
2021/08/05 05:00:29;;;;;;;5.85;4.07;;;14.30;96.90;;;;;;5063996;28;20044;-68
2021/08/05 05:02:55;;;;;;;9.18;3.85;;;14.30;96.60;;;;;;5062501;28;20069;-69
2021/08/05 05:05:23;;;;;;;6.20;3.83;;;14.20;96.60;;;;;;5056231;28;20067;-68
2021/08/05 05:07:49;;;;;;;9.07;3.70;;;14.30;96.40;;;;;;5065504;28;20507;-68
2021/08/05 05:10:15;;;;;;;5.38;4.03;;;14.40;96.50;;;;;;5066680;28;20056;-69
2021/08/05 05:12:42;;;;;;;6.75;3.70;;;14.30;96.40;;;;;;5066898;28;20382;-68
2021/08/05 05:15:09;;;;;;;6.93;3.65;;;14.40;96.30;;;;;;5064216;28;20032;-68
2021/08/05 05:17:35;;;;;;;5.35;3.22;;;14.50;96.40;;;;;;5061200;28;20024;-68
2021/08/05 05:20:03;;;;;;;5.93;3.25;;;14.50;96.00;;;;;;5068256;28;20101;-68
2021/08/05 05:22:29;;;;;;;6.07;3.72;;;14.60;95.60;;;;;;5062333;28;20127;-67
2021/08/05 05:24:55;;;;;;;4.65;3.20;;;14.60;95.80;;;;;;5066831;28;20185;-67
2021/08/05 05:27:20;;;;;;;6.15;3.53;;;14.70;95.50;;;;;;5060692;28;20364;-68
2021/08/05 05:29:46;;;;;;;6.20;3.30;;;14.80;95.60;;;;;;5065323;28;20033;-68
2021/08/05 05:32:11;;;;;;;4.35;2.88;;;14.80;94.80;;;;;;5061607;28;20317;-69
2021/08/05 05:34:37;;;;;;;7.85;3.30;;;14.80;94.40;;;;;;5056284;28;20044;-68
2021/08/05 05:37:03;;;;;;;4.93;3.25;;;15.00;94.80;;;;;;5052429;28;20051;-68
2021/08/05 05:39:29;;;;;;;4.95;2.95;;;15.00;94.70;;;;;;5065383;28;20059;-69
2021/08/05 05:41:55;;;;;;;4.43;2.50;;;15.00;94.40;;;;;;5063060;28;20039;-68
2021/08/05 05:44:20;;;;;;;6.97;2.88;;;15.10;94.00;;;;;;5059828;28;20028;-69
2021/08/05 05:46:46;;;;;;;6.53;3.20;;;15.20;93.70;;;;;;5060506;28;20024;-69
2021/08/05 05:49:11;;;;;;;3.60;2.78;;;15.30;94.30;;;;;;5059510;28;20079;-68
2021/08/05 05:51:37;;;;;;;5.57;2.90;;;15.30;93.60;;;;;;5062992;28;20107;-68
2021/08/05 05:54:03;;;;;;;4.68;3.10;;;15.30;93.80;;;;;;5063349;28;20028;-69
2021/08/05 05:56:29;;;;;;;5.80;2.80;;;15.40;93.30;;;;;;5060026;28;20094;-68
2021/08/05 05:58:54;;;;;;;6.00;2.72;;;15.30;93.20;;;;;;5065910;28;20151;-68
2021/08/05 06:01:20;;;;;;;4.53;2.47;;;15.20;93.20;;;;;;5068823;28;20099;-68
2021/08/05 06:03:45;;;;;;;4.50;2.90;;;15.20;93.30;;;;;;5047271;28;20043;-68
2021/08/05 06:06:11;;;;;;;6.25;2.83;;;15.20;93.50;;;;;;5065431;28;20035;-67
2021/08/05 06:08:36;;;;;;;4.03;2.70;;;15.20;93.20;;;;;;5059242;28;20541;-69
2021/08/05 06:11:02;;;;;;;5.18;3.08;;;15.30;93.90;;;;;;5061407;28;20656;-68
2021/08/05 06:13:27;;;;;;;9.65;2.97;;;15.40;93.80;;;;;;5063588;28;20116;-68
2021/08/05 06:15:53;;;;;;;10.07;3.25;;;15.50;93.70;;;;;;5063264;28;20056;-69
2021/08/05 06:18:19;;;;;;;8.88;3.00;;;15.50;93.20;;;;;;5059267;28;20036;-69
2021/08/05 06:20:44;;;;;;;4.78;2.80;;;15.60;91.80;;;;;;5065102;28;20075;-69
2021/08/05 06:23:10;;;;;;;4.63;2.78;;;15.70;92.90;;;;;;5064674;28;20029;-69
2021/08/05 06:25:36;;;;;;;6.18;2.55;;;15.80;91.80;;;;;;5063396;28;20527;-69
2021/08/05 06:28:03;;;;;;;6.70;2.95;;;15.80;92.30;;;;;;5063915;28;20445;-67
2021/08/05 06:30:29;;;;;;;6.55;3.67;;;15.90;91.20;;;;;;5064207;28;20040;-69
2021/08/05 06:32:54;;;;;;;6.78;2.85;;;16.00;92.70;;;;;;5062396;28;20029;-69
2021/08/05 06:35:20;;;;;;;4.97;2.85;;;16.00;92.30;;;;;;5056408;28;20610;-69
2021/08/05 06:37:46;;;;;;;5.57;2.90;;;16.20;91.10;;;;;;5056680;28;21217;-69
2021/08/05 06:40:11;;;;;;;5.63;3.10;;;16.40;92.50;;;;;;5064449;28;20059;-69
2021/08/05 06:42:38;;;;;;;5.68;2.95;;;16.50;92.10;;;;;;5056606;28;20024;-69
2021/08/05 06:45:05;;;;;;;4.80;3.08;;;16.60;91.60;;;;;;5059378;28;20352;-68
2021/08/05 06:47:30;;;;;;;11.23;3.63;;;16.70;91.90;;;;;;5059504;28;20464;-69
2021/08/05 06:49:56;;;;;;;7.53;3.58;;;16.70;90.70;;;;;;5055276;28;20028;-69
2021/08/05 06:52:22;;;;;;;7.97;3.20;;;16.80;91.10;;;;;;5053817;28;20028;-70
2021/08/05 06:54:48;;;;;;;6.97;2.83;;;16.80;91.60;;;;;;5058373;28;20036;-70
2021/08/05 06:57:15;;;;;;;9.73;3.13;;;16.80;90.50;;;;;;5056812;28;20372;-69
2021/08/05 06:59:40;;;;;;;5.93;2.70;;;16.90;90.30;;;;;;5055262;28;20391;-69
2021/08/05 07:02:06;;;;;;;5.55;2.72;;;16.90;89.20;;;;;;5060403;28;20025;-70
2021/08/05 07:04:32;;;;;;;5.18;2.72;;;16.80;89.30;;;;;;5063771;28;20302;-69
2021/08/05 07:06:57;;;;;;;5.78;3.13;;;16.80;91.10;;;;;;5059005;28;20028;-69
2021/08/05 07:09:23;;;;;;;5.53;3.00;;;16.90;91.40;;;;;;5061856;28;20333;-69
2021/08/05 07:11:48;;;;;;;5.88;3.28;;;17.00;92.10;;;;;;5061163;28;20063;-70
2021/08/05 07:14:14;;;;;;;4.97;3.03;;;17.30;91.80;;;;;;5046123;28;20307;-70
2021/08/05 07:16:39;;;;;;;6.22;2.90;;;17.60;90.30;;;;;;5036915;28;20426;-70
2021/08/05 07:19:05;;;;;;;5.20;2.78;;;17.70;90.40;;;;;;5063806;28;20036;-69
2021/08/05 07:21:31;;;;;;;4.35;2.60;;;17.60;87.80;;;;;;5038034;28;20029;-68
2021/08/05 07:23:56;;;;;;;6.88;2.55;;;17.60;88.70;;;;;;5051664;28;20148;-70
2021/08/05 07:26:22;;;;;;;4.68;2.83;;;17.50;87.40;;;;;;5066599;28;20093;-70
2021/08/05 07:28:48;;;;;;;4.55;2.20;;;17.70;88.80;;;;;;5054687;28;20043;-69
2021/08/05 07:31:14;;;;;;;5.18;2.60;;;17.70;88.90;;;;;;5061542;28;20020;-69
2021/08/05 07:33:40;;;;;;;5.65;2.33;;;17.90;88.70;;;;;;5057068;28;20408;-69
2021/08/05 07:36:05;;;;;;;4.30;2.65;;;18.00;87.80;;;;;;5062369;28;20234;-69
2021/08/05 07:38:31;;;;;;;7.90;2.58;;;18.10;86.60;;;;;;5057143;28;20151;-70
2021/08/05 07:40:56;;;;;;;6.18;2.40;;;18.50;86.00;;;;;;5064936;28;20055;-69
2021/08/05 07:43:22;;;;;;;6.00;2.45;;;18.70;85.30;;;;;;5063101;28;20031;-68
2021/08/05 07:45:48;;;;;;;3.95;2.20;;;18.50;84.20;;;;;;5051040;28;20028;-70
2021/08/05 07:48:13;;;;;;;7.28;2.28;;;18.50;86.00;;;;;;5038278;28;20080;-70
2021/08/05 07:50:39;;;;;;;6.35;2.75;;;18.30;83.20;;;;;;5046092;28;20090;-71
2021/08/05 07:53:04;;;;;;;6.68;2.97;;;18.60;85.50;;;;;;5053906;28;20102;-69
2021/08/05 07:55:31;;;;;;;4.32;2.17;;;18.90;85.30;;;;;;5059934;28;20472;-70
2021/08/05 07:57:57;;;;;;;5.22;2.75;;;18.90;82.90;;;;;;5061596;28;20020;-69
2021/08/05 08:00:23;;;;;;;5.93;2.17;;;19.40;84.00;;;;;;5061129;28;20153;-70
2021/08/05 08:02:48;;;;;;;4.70;2.63;;;19.70;81.20;;;;;;5056538;28;20105;-70
2021/08/05 08:05:14;;;;;;;4.47;2.90;;;20.00;82.40;;;;;;5063542;28;20534;-69
2021/08/05 08:07:42;;;;;;;5.32;2.63;;;20.40;81.10;;;;;;5061893;28;20115;-70
2021/08/05 08:10:09;;;;;;;5.53;2.60;;;20.70;80.00;;;;;;5060854;28;20036;-70
2021/08/05 08:12:35;;;;;;;5.95;2.60;;;21.00;79.30;;;;;;5063083;28;20420;-68
2021/08/05 08:15:01;;;;;;;2.90;2.17;;;21.30;74.70;;;;;;5055793;28;20036;-70
2021/08/05 08:17:27;;;;;;;4.68;2.45;;;21.30;75.50;;;;;;5061513;28;20028;-70
2021/08/05 08:19:52;;;;;;;3.83;2.50;;;21.90;76.70;;;;;;5071564;28;20024;-70
2021/08/05 08:22:18;;;;;;;5.80;2.47;;;22.00;73.90;;;;;;5061413;28;20436;-69
2021/08/05 08:24:43;;;;;;;3.88;2.58;;;21.90;74.70;;;;;;5065620;28;20033;-71
2021/08/05 08:27:09;;;;;;;7.25;2.63;;;22.10;75.20;;;;;;5066169;28;20108;-70
2021/08/05 08:29:35;;;;;;;4.55;2.20;;;21.90;72.70;;;;;;5070210;28;20110;-70
2021/08/05 08:32:00;;;;;;;3.90;2.53;;;22.00;73.10;;;;;;5064608;28;20039;-71
2021/08/05 08:34:26;;;;;;;6.55;2.58;;;22.20;75.40;;;;;;5055737;28;20029;-71
2021/08/05 08:36:51;;;;;;;4.63;2.47;;;22.00;72.80;;;;;;5051464;28;20025;-71
2021/08/05 08:39:18;;;;;;;8.02;2.72;;;22.00;73.10;;;;;;5053355;28;20133;-69
2021/08/05 08:41:44;;;;;;;4.82;2.40;;;21.20;73.20;;;;;;5075200;28;20042;-67
2021/08/05 08:44:13;;;;;;;9.68;2.50;;;21.60;74.30;;;;;;5057055;28;20337;-67
2021/08/05 08:46:39;;;;;;;5.88;2.80;;;21.50;73.40;;;;;;5060074;28;20029;-68
2021/08/05 08:49:07;;;;;;;4.35;2.78;;;21.50;74.00;;;;;;5061499;28;20025;-67
2021/08/05 08:51:34;;;;;;;5.68;2.97;;;21.50;73.50;;;;;;5064163;28;20021;-68
2021/08/05 08:54:07;;;;;;;5.53;2.80;;;21.60;72.60;;;;;;5059464;28;20040;-68
2021/08/05 08:56:33;;;;;;;3.85;2.65;;;21.50;72.30;;;;;;5062524;28;20043;-67
2021/08/05 08:58:59;;;;;;;5.32;2.85;;;21.40;72.20;;;;;;5059389;28;20091;-68
2021/08/05 09:01:25;;;;;;;4.50;2.53;;;22.00;73.80;;;;;;5056214;28;20059;-68
2021/08/05 09:03:51;;;;;;;3.67;2.47;;;21.80;73.00;;;;;;5060883;28;20036;-68
2021/08/05 09:06:17;;;;;;;3.35;2.70;;;22.00;73.60;;;;;;5057752;28;20108;-68
2021/08/05 09:08:42;;;;;;;4.65;2.85;;;22.00;73.10;;;;;;5058181;28;20036;-67
2021/08/05 09:11:09;;;;;;;5.25;3.00;;;22.00;68.60;;;;;;5061392;28;20074;-68
2021/08/05 09:13:35;;;;;;;5.65;2.55;;;21.70;70.70;;;;;;5065676;28;20024;-67
2021/08/05 09:16:00;;;;;;;5.15;2.78;;;21.90;69.90;;;;;;5058225;28;20024;-67
2021/08/05 09:18:28;;;;;;;6.07;2.80;;;22.40;69.80;;;;;;5065019;28;20024;-67
2021/08/05 09:21:14;;;;;;;7.53;3.08;;;22.70;70.10;;;;;;5058311;28;20072;-70
2021/08/05 09:23:54;;;;;;;7.50;2.67;;;22.90;69.10;;;;;;5068939;28;20020;-68
2021/08/05 09:26:23;;;;;;;5.90;2.90;;;22.80;69.00;;;;;;5063596;28;20458;-68
2021/08/05 09:29:09;;;;;;;5.55;3.00;;;22.50;69.30;;;;;;5064953;28;20044;-67
2021/08/05 09:31:42;;;;;;;5.55;2.72;;;22.00;70.10;;;;;;5065012;28;20029;-66
2021/08/05 09:34:11;;;;;;;4.95;2.58;;;21.70;70.10;;;;;;5067257;28;20429;-67
2021/08/05 09:36:38;;;;;;;3.45;2.70;;;21.60;71.90;;;;;;5062254;28;20671;-67
2021/08/05 09:39:23;;;;;;;5.28;2.85;;;21.70;71.40;;;;;;5063370;28;20032;-67
2021/08/05 09:41:57;;;;;;;6.40;2.60;;;22.00;69.10;;;;;;5047385;28;20055;-70
2021/08/05 09:44:23;;;;;;;4.80;2.80;;;22.40;68.90;;;;;;5060312;28;20712;-67
2021/08/05 09:47:03;;;;;;;3.75;2.60;;;22.50;66.60;;;;;;5057869;28;20041;-67
2021/08/05 09:49:29;;;;;;;6.65;2.92;;;22.50;67.90;;;;;;5065777;28;20043;-67
2021/08/05 09:51:59;;;;;;;3.45;2.60;;;22.70;67.20;;;;;;5055595;28;20288;-68
2021/08/05 09:54:48;;;;;;;4.32;2.50;;;23.00;64.90;;;;;;5057095;28;20090;-69
2021/08/05 09:57:21;;;;;;;3.85;2.65;;;23.30;65.10;;;;;;5057647;28;20040;-70
2021/08/05 09:59:55;;;;;;;5.25;3.00;;;22.80;65.70;;;;;;5058078;28;20106;-68
2021/08/05 10:02:22;;;;;;;4.25;2.85;;;22.80;66.40;;;;;;5058797;28;20028;-68
2021/08/05 10:04:48;;;;;;;5.78;3.30;;;22.80;68.10;;;;;;5058342;28;20122;-67
2021/08/05 10:07:15;;;;;;;4.50;2.95;;;22.60;69.10;;;;;;5056902;28;20069;-68
2021/08/05 10:09:41;;;;;;;5.13;2.92;;;22.00;70.90;;;;;;5054309;28;20114;-67
2021/08/05 10:12:20;;;;;;;6.03;3.03;;;22.00;70.80;;;;;;5051132;28;20024;-67
2021/08/05 10:14:48;;;;;;;4.63;3.10;;;21.60;71.60;;;;;;5061696;28;20128;-68
2021/08/05 10:17:16;;;;;;;5.10;2.80;;;21.70;73.00;;;;;;5051748;28;20029;-67
2021/08/05 10:19:44;;;;;;;5.85;2.83;;;21.60;73.10;;;;;;5055376;28;20116;-68
2021/08/05 10:22:12;;;;;;;7.70;2.92;;;21.80;71.90;;;;;;5052099;28;20055;-67
2021/08/05 10:24:41;;;;;;;4.28;3.03;;;22.00;72.50;;;;;;5063428;28;20553;-68
2021/08/05 10:27:08;;;;;;;6.90;3.17;;;21.80;71.90;;;;;;5059238;28;20032;-67
2021/08/05 10:29:35;;;;;;;4.97;3.03;;;21.90;72.70;;;;;;5060435;28;20043;-67
2021/08/05 10:32:03;;;;;;;4.47;3.25;;;21.90;72.20;;;;;;5068418;28;20032;-68
2021/08/05 10:34:34;;;;;;;3.70;2.60;;;22.10;72.00;;;;;;5065519;28;20132;-66
2021/08/05 10:37:05;;;;;;;2.80;2.00;;;21.70;68.40;;;;;;5051748;28;20021;-70
2021/08/05 10:39:31;;;;;;;4.57;2.17;;;22.00;68.60;;;;;;5037102;28;20135;-66
2021/08/05 10:42:05;;;;;;;2.85;2.13;;;22.20;68.20;;;;;;5058733;28;20029;-67
2021/08/05 10:44:34;;;;;;;4.30;2.50;;;22.40;69.30;;;;;;5058343;28;20078;-69
2021/08/05 10:47:00;;;;;;;5.63;2.67;;;22.10;69.60;;;;;;5052379;28;20051;-68
2021/08/05 10:49:27;;;;;;;6.30;2.80;;;22.20;69.80;;;;;;5058871;28;20115;-67
2021/08/05 10:51:53;;;;;;;6.07;2.80;;;22.00;70.70;;;;;;5063827;28;20040;-67
2021/08/05 10:54:48;;;;;;;3.65;2.55;;;22.40;71.80;;;;;;5074151;28;20074;-67
2021/08/05 10:57:18;;;;;;;3.35;1.98;;;22.50;67.60;;;;;;5057096;28;20127;-67
2021/08/05 11:00:03;;;;;;;4.60;2.80;;;22.60;69.30;;;;;;5063131;28;20071;-67
2021/08/05 11:02:49;;;;;;;5.13;2.63;;;22.60;69.50;;;;;;5063320;28;20166;-68
2021/08/05 11:05:24;;;;;;;4.35;2.78;;;22.20;69.90;;;;;;5057075;28;20036;-69
2021/08/05 11:07:52;;;;;;;4.72;2.90;;;22.10;71.80;;;;;;5051161;28;20403;-67
2021/08/05 11:10:19;;;;;;;6.32;3.20;;;22.00;71.90;;;;;;5061936;28;20428;-67
2021/08/05 11:12:49;;;;;;;4.53;2.80;;;21.80;73.20;;;;;;5044567;28;20108;-68
2021/08/05 11:15:25;;;;;;;6.50;2.72;;;22.00;72.40;;;;;;5061501;28;20028;-68
2021/08/05 11:18:17;;;;;;;7.07;2.78;;;22.30;71.80;;;;;;5051567;28;20043;-67
2021/08/05 11:20:45;;;;;;;5.38;2.65;;;22.20;68.70;;;;;;5048652;28;20028;-65
2021/08/05 11:23:31;;;;;;;4.57;2.40;;;22.30;69.50;;;;;;5063739;28;20420;-66
2021/08/05 11:25:57;;;;;;;4.68;3.03;;;22.50;70.70;;;;;;5044423;28;20358;-67
2021/08/05 11:28:34;;;;;;;6.20;3.47;;;22.10;73.10;;;;;;5044871;28;20029;-65
2021/08/05 11:31:01;;;;;;;6.15;3.22;;;21.80;74.90;;;;;;5059028;28;20029;-65
2021/08/05 11:33:39;;;;;;;6.03;3.53;;;21.50;77.00;;;;;;5051497;28;20028;-64
2021/08/05 11:36:23;;;;;;;5.75;3.22;;;21.10;77.50;;;;;;5061293;28;20028;-65
2021/08/05 11:39:04;;;;;;;11.65;4.03;;;21.10;79.20;;;;;;5063073;28;20235;-67
2021/08/05 11:41:41;;;;;;;5.80;4.22;;;20.50;81.50;;;;;;5049212;28;20599;-67
2021/08/05 11:44:22;;;;;;;7.03;4.07;;;20.20;82.50;;;;;;5053346;28;20107;-68
2021/08/05 11:47:09;;;;;;;6.38;3.88;;;20.00;83.00;;;;;;5058546;28;20102;-69
2021/08/05 11:49:40;;;;;;;6.32;4.85;;;19.70;84.60;;;;;;5055996;28;20458;-68
2021/08/05 11:52:14;;;;;;;7.10;4.75;;;20.00;86.50;;;;;;5067942;28;20123;-68
2021/08/05 11:54:43;;;;;;;6.55;4.60;;;19.70;87.00;;;;;;5062232;28;20123;-70
2021/08/05 11:57:16;;;;;;;7.05;4.95;;;19.70;86.90;;;;;;5060131;28;20179;-67
2021/08/05 11:59:47;;;;;;;7.30;5.00;;;19.70;87.90;;;;;;5067898;28;20038;-68
2021/08/05 12:02:19;;;;;;;6.00;3.90;;;19.70;88.50;;;;;;5057917;28;20029;-68
2021/08/05 12:04:44;;;;;;;;;;;19.60;86.90;;;;;;5064677;28;20115;-69
2021/08/05 12:07:23;;;;;;;8.18;4.35;;;19.80;88.50;;;;;;5063500;28;20203;-68
2021/08/05 12:09:53;;;;;;;7.30;4.40;;;19.90;88.90;;;;;;5064272;28;20452;-68
2021/08/05 12:12:19;;;;;;;10.45;4.75;;;20.40;88.40;;;;;;5063100;28;20102;-68
2021/08/05 12:14:58;;;;;;;5.80;4.40;;;20.60;88.00;;;;;;5070095;28;20040;-68
2021/08/05 12:17:50;;;;;;;6.22;4.03;;;20.80;87.20;;;;;;5066521;28;20024;-69
2021/08/05 12:20:38;;;;;;;5.47;3.35;;;20.90;84.70;;;;;;5072620;28;20521;-68
2021/08/05 12:23:12;;;;;;;6.75;3.33;;;20.90;81.70;;;;;;5060715;28;20040;-69
2021/08/05 12:25:51;;;;;;;5.30;3.10;;;20.80;82.40;;;;;;5072503;28;20032;-70
2021/08/05 12:28:20;;;;;;;5.95;3.35;;;20.80;81.40;;;;;;5059046;28;20116;-68
2021/08/05 12:30:49;;;;;;;5.18;3.50;;;20.70;85.40;;;;;;5048859;28;20028;-68
2021/08/05 12:33:22;;;;;;;8.35;2.92;;;20.50;84.30;;;;;;5049048;28;20020;-68
2021/08/05 12:36:16;;;;;;;6.15;3.25;;;20.30;85.00;;;;;;5071521;28;20036;-68
2021/08/05 12:38:51;;;;;;;10.38;3.53;;;20.20;86.30;;;;;;5055537;28;20131;-69
2021/08/05 12:41:28;;;;;;;6.00;3.50;;;20.00;86.40;;;;;;5063398;28;20059;-67
2021/08/05 12:43:57;;;;;;;4.97;3.50;;;20.10;86.90;;;;;;5063311;28;20035;-68
2021/08/05 12:46:24;;;;;;;9.82;3.80;;;20.10;87.80;;;;;;5062977;28;20052;-68
2021/08/05 12:48:57;;;;;;;7.10;4.15;;;20.40;88.20;;;;;;5071471;28;20085;-67
2021/08/05 12:51:26;;;;;;;8.02;3.85;;;20.60;87.60;;;;;;5063246;28;20023;-68
2021/08/05 12:53:52;;;;;;;6.07;3.97;;;20.80;86.20;;;;;;5058408;28;20380;-69